Menahga, MN (56464)

12:45 PM CDT on September 26, 2016 (GMT -0500)
Park Rapids Municipal | | Change Station

Elev 1440 ft 46.90 °N, 95.07 °W | Updated 52 minutes ago

Clear
Clear
58 °F
Feels Like 58 °F
N
26
Wind Variable Wind from WNW
Gusts 36 mph

Today
High -- | Low -- °F
--% Chance of Precip.
Yesterday
High -- | Low -- °F
Precip. -- in
Pressure 29.89 in
Visibility 10.0 miles
Clouds Clear
Dew Point 38 °F
Humidity 47%
Rainfall 0.02 in
Snow Depth Not available.
7:12 AM 7:08 PM
Waning Crescent, 17% visible
METAR KPKD 261653Z AUTO 30023G31KT 10SM CLR 14/03 A2988 RMK AO2 PK WND 30031/1648 SLP122 T01440033 TSNO
Pressure 29.89 in
Visibility 10.0 miles
Clouds Clear
Dew Point 38 °F
Humidity 47%
Rainfall 0.02 in
Snow Depth Not available.
7:12 AM 7:08 PM
Waning Crescent, 17% visible
METAR KPKD 261653Z AUTO 30023G31KT 10SM CLR 14/03 A2988 RMK AO2 PK WND 30031/1648 SLP122 T01440033 TSNO

10-Day Weather Forecast

Almanac

Astronomy

Sep. 26, 2016 Rise Set
Actual Time
Civil Twilight
Nautical Twilight
Astronomical Twilight
Moon
Length of Visible Light
Length of Day
Tomorrow will be .
, % of the Moon is Illuminated

Today's Extremes

State Highs State Lows

Community

WunderPhotos

Upload Photos

1,941,939 photos uploaded!

WunderBlog® & News

Nearby

Air Quality

  Air Quality AQ Index Pollutant
Not available.

Snow Depth

Station Depth Elevation

Earthquake Activity

City Distance Mag. Time & Date
Minimum magnitude displayed is 2.5.

Coastal Water Temperatures

Place Temperature

Stations

Nearby Weather Stations

Station Location Temp. Windchill Dew Point Humidity Wind Precip. Elev Updated Type
                   

Watches & Warnings

There are currently no watches in effect.